Time;durP1;ratioP1;P1;durP2;ratioP2;P2;SDS_P1;SDS_P2;PMS_P1;PMS_P2;Temp;Humidity;BMP_temperature;BMP_pressure;BME280_temperature;BME280_humidity;BME280_pressure;Samples;Min_cycle;Max_cycle;Signal;HPM_P1;HPM_P2
2022/01/08 00:00:33;;;;;;;30.63;27.80;;;;;;;;;;4975828;28;20310;-85
2022/01/08 00:03:00;;;;;;;29.67;27.33;;;;;;;;;;4976103;28;20275;-84
2022/01/08 00:05:28;;;;;;;30.25;27.88;;;;;;;;;;4975663;28;20203;-85
2022/01/08 00:07:55;;;;;;;31.25;28.52;;;;;;;;;;4974989;28;20196;-85
2022/01/08 00:10:24;;;;;;;28.88;26.70;;;;;;;;;;4975866;28;20196;-84
2022/01/08 00:12:52;;;;;;;30.30;27.80;;;;;;;;;;4975468;28;20719;-85
2022/01/08 00:15:21;;;;;;;30.90;28.35;;;;;;;;;;4975621;28;20586;-85
2022/01/08 00:17:49;;;;;;;29.33;27.02;;;;;;;;;;4975687;28;20578;-84
2022/01/08 00:20:16;;;;;;;30.50;28.15;;;;;;;;;;4975546;28;20299;-84
2022/01/08 00:22:43;;;;;;;32.22;29.42;;;;;;;;;;4975345;28;20241;-85
2022/01/08 00:25:11;;;;;;;30.33;27.83;;;;;;;;;;4975618;28;20203;-85
2022/01/08 00:27:40;;;;;;;31.45;28.85;;;;;;;;;;4975163;28;20654;-84
2022/01/08 00:30:08;;;;;;;32.00;29.42;;;;;;;;;;4975069;28;20259;-84
2022/01/08 00:32:35;;;;;;;32.03;29.52;;;;;;;;;;4978509;28;20233;-85
2022/01/08 00:35:03;;;;;;;31.77;29.08;;;;;;;;;;4976454;28;20207;-84
2022/01/08 00:37:30;;;;;;;32.10;29.35;;;;;;;;;;4975651;28;20196;-85
2022/01/08 00:39:57;;;;;;;30.95;27.92;;;;;;;;;;4975712;28;20283;-85
2022/01/08 00:42:25;;;;;;;30.20;27.95;;;;;;;;;;4975133;28;20188;-85
2022/01/08 00:44:54;;;;;;;30.00;27.60;;;;;;;;;;4975261;28;20218;-85
2022/01/08 00:47:21;;;;;;;33.08;29.52;;;;;;;;;;4974911;28;20270;-85
2022/01/08 00:49:48;;;;;;;32.40;29.70;;;;;;;;;;4974964;28;20548;-85
2022/01/08 00:52:16;;;;;;;31.77;29.08;;;;;;;;;;4974834;28;20219;-85
2022/01/08 00:54:43;;;;;;;32.80;30.08;;;;;;;;;;4974879;28;20207;-85
2022/01/08 00:57:10;;;;;;;32.90;30.20;;;;;;;;;;4974946;28;20252;-85
2022/01/08 00:59:38;;;;;;;32.55;29.55;;;;;;;;;;4957480;28;20625;-84
2022/01/08 01:02:06;;;;;;;31.70;29.00;;;;;;;;;;4974990;28;20195;-85
2022/01/08 01:04:34;;;;;;;33.08;30.15;;;;;;;;;;4974727;28;20196;-84
2022/01/08 01:07:01;;;;;;;30.38;27.90;;;;;;;;;;4974464;28;20205;-84
2022/01/08 01:09:28;;;;;;;31.80;29.10;;;;;;;;;;4974596;28;20558;-85
2022/01/08 01:11:57;;;;;;;33.17;30.38;;;;;;;;;;4974788;28;20201;-85
2022/01/08 01:14:25;;;;;;;31.60;29.10;;;;;;;;;;4974454;28;20645;-84
2022/01/08 01:16:52;;;;;;;31.48;28.70;;;;;;;;;;4974435;28;20192;-84
2022/01/08 01:19:22;;;;;;;33.70;30.50;;;;;;;;;;4974159;28;20211;-84
2022/01/08 01:21:49;;;;;;;33.30;30.25;;;;;;;;;;4974798;28;20191;-85
2022/01/08 01:24:20;;;;;;;31.05;28.55;;;;;;;;;;4974448;28;20262;-84
2022/01/08 01:27:09;;;;;;;33.33;30.27;;;;;;;;;;4974397;28;20208;-84
2022/01/08 01:29:46;;;;;;;32.67;30.17;;;;;;;;;;4974526;28;20254;-84
2022/01/08 01:43:28;;;;;;;32.88;29.67;;;;;;;;;;4974253;28;20194;-84
2022/01/08 01:48:37;;;;;;;33.95;31.02;;;;;;;;;;4952063;28;20203;-85
2022/01/08 01:51:06;;;;;;;34.05;31.10;;;;;;;;;;4974431;28;20204;-84
2022/01/08 01:53:33;;;;;;;33.85;31.02;;;;;;;;;;4973958;28;20231;-85
2022/01/08 01:56:00;;;;;;;33.03;30.33;;;;;;;;;;4974244;28;20199;-84
2022/01/08 01:58:28;;;;;;;33.10;29.92;;;;;;;;;;4974485;28;20251;-84
2022/01/08 02:00:55;;;;;;;33.17;29.20;;;;;;;;;;4974484;28;20224;-84
2022/01/08 02:03:22;;;;;;;33.10;30.40;;;;;;;;;;4974309;28;20553;-84
2022/01/08 02:05:51;;;;;;;35.05;31.95;;;;;;;;;;4974497;28;20275;-84
2022/01/08 02:08:20;;;;;;;34.88;31.98;;;;;;;;;;4975972;28;20596;-85
2022/01/08 02:10:47;;;;;;;32.92;30.20;;;;;;;;;;4975270;28;20218;-85
2022/01/08 02:13:21;;;;;;;37.33;33.58;;;;;;;;;;4975565;28;20234;-85
2022/01/08 02:15:52;;;;;;;37.63;34.08;;;;;;;;;;4974465;28;20536;-85
2022/01/08 02:18:19;;;;;;;37.67;34.22;;;;;;;;;;4974061;28;20561;-84
2022/01/08 02:20:48;;;;;;;46.80;35.67;;;;;;;;;;4974138;28;20215;-84
2022/01/08 02:23:15;;;;;;;39.53;35.63;;;;;;;;;;4973890;28;20231;-84
2022/01/08 02:25:43;;;;;;;37.90;34.22;;;;;;;;;;4974125;28;20250;-85
2022/01/08 02:28:10;;;;;;;37.40;33.53;;;;;;;;;;4957199;28;20209;-85
2022/01/08 02:30:38;;;;;;;38.85;35.15;;;;;;;;;;4976055;28;20255;-85
2022/01/08 02:33:05;;;;;;;37.75;34.22;;;;;;;;;;4960084;28;20302;-84
2022/01/08 02:35:33;;;;;;;36.83;33.58;;;;;;;;;;4977598;28;20201;-85
2022/01/08 02:38:02;;;;;;;36.40;33.13;;;;;;;;;;4977346;28;20212;-85
2022/01/08 02:40:30;;;;;;;38.05;34.80;;;;;;;;;;4977849;28;20193;-85
2022/01/08 02:43:02;;;;;;;38.40;34.47;;;;;;;;;;4977729;28;20207;-85
2022/01/08 02:45:30;;;;;;;37.80;34.30;;;;;;;;;;4977486;28;20278;-85
2022/01/08 02:47:58;;;;;;;36.13;32.70;;;;;;;;;;4977293;28;20188;-85
2022/01/08 02:50:26;;;;;;;38.75;35.17;;;;;;;;;;4977164;28;20655;-85
2022/01/08 02:52:53;;;;;;;37.53;33.85;;;;;;;;;;4977057;28;20187;-85
2022/01/08 02:55:22;;;;;;;38.83;34.65;;;;;;;;;;4977054;28;20207;-84
2022/01/08 02:57:50;;;;;;;38.13;34.50;;;;;;;;;;4977221;28;20191;-85
2022/01/08 03:00:19;;;;;;;38.70;35.20;;;;;;;;;;4977220;28;20259;-85
2022/01/08 03:02:47;;;;;;;38.55;34.63;;;;;;;;;;4977057;28;20713;-85
2022/01/08 03:05:14;;;;;;;37.67;33.92;;;;;;;;;;4977136;28;20209;-85
2022/01/08 03:07:42;;;;;;;38.17;34.58;;;;;;;;;;4959701;28;20722;-85
2022/01/08 03:10:11;;;;;;;37.30;33.95;;;;;;;;;;4977346;28;20219;-85
2022/01/08 03:12:41;;;;;;;38.72;34.65;;;;;;;;;;4976600;28;20254;-84
2022/01/08 03:15:09;;;;;;;36.78;32.88;;;;;;;;;;4976678;28;20582;-85
2022/01/08 03:17:36;;;;;;;37.45;33.88;;;;;;;;;;4977214;28;20203;-84
2022/01/08 03:20:05;;;;;;;37.65;34.15;;;;;;;;;;4976709;28;20224;-85
2022/01/08 03:22:33;;;;;;;39.88;35.90;;;;;;;;;;4976829;28;20242;-84
2022/01/08 03:25:01;;;;;;;36.72;33.17;;;;;;;;;;4984150;28;20247;-85
2022/01/08 03:27:28;;;;;;;37.22;33.72;;;;;;;;;;5000171;28;20191;-85
2022/01/08 03:29:57;;;;;;;38.35;34.40;;;;;;;;;;4984072;28;20559;-85
2022/01/08 03:32:24;;;;;;;38.45;34.70;;;;;;;;;;4977073;28;20248;-85
2022/01/08 03:34:52;;;;;;;38.03;34.53;;;;;;;;;;4976759;28;20224;-84
2022/01/08 03:37:19;;;;;;;37.33;34.03;;;;;;;;;;4976593;28;20725;-85
2022/01/08 03:39:47;;;;;;;41.25;37.00;;;;;;;;;;4976264;28;20215;-84
2022/01/08 03:42:14;;;;;;;38.20;34.42;;;;;;;;;;4975970;28;20196;-85
2022/01/08 03:44:41;;;;;;;37.17;33.90;;;;;;;;;;4976195;28;20643;-85
2022/01/08 03:47:30;;;;;;;38.20;34.55;;;;;;;;;;4958840;28;20211;-85
2022/01/08 03:49:58;;;;;;;39.13;35.35;;;;;;;;;;4976408;28;20204;-84
2022/01/08 03:52:26;;;;;;;41.72;37.33;;;;;;;;;;4976142;28;20202;-84
2022/01/08 03:54:53;;;;;;;36.47;33.10;;;;;;;;;;4976011;28;20286;-85
2022/01/08 03:57:21;;;;;;;37.90;34.30;;;;;;;;;;4976130;28;20197;-85
2022/01/08 03:59:48;;;;;;;38.25;34.65;;;;;;;;;;4976812;28;20204;-85
2022/01/08 04:02:18;;;;;;;39.17;35.47;;;;;;;;;;4976113;28;20226;-85
2022/01/08 04:04:45;;;;;;;37.08;33.50;;;;;;;;;;4975940;28;20262;-85
2022/01/08 04:07:12;;;;;;;38.90;34.85;;;;;;;;;;4976153;28;20223;-85
2022/01/08 04:09:40;;;;;;;38.80;34.70;;;;;;;;;;4975996;28;20199;-85
2022/01/08 04:12:08;;;;;;;36.90;33.30;;;;;;;;;;4958524;28;20208;-86
2022/01/08 04:14:49;;;;;;;37.40;34.05;;;;;;;;;;4975714;28;20757;-85
2022/01/08 04:17:18;;;;;;;38.63;34.72;;;;;;;;;;4975850;28;20206;-85
2022/01/08 04:19:46;;;;;;;39.80;36.08;;;;;;;;;;4975765;28;20642;-85
2022/01/08 04:22:14;;;;;;;38.42;34.42;;;;;;;;;;4975478;28;20239;-85
2022/01/08 04:24:42;;;;;;;39.17;35.58;;;;;;;;;;4942381;28;20215;-85
2022/01/08 04:27:09;;;;;;;39.42;35.80;;;;;;;;;;4975726;28;20199;-85
2022/01/08 04:29:37;;;;;;;39.25;35.80;;;;;;;;;;4975658;28;20191;-85
2022/01/08 04:32:05;;;;;;;37.88;34.35;;;;;;;;;;4975119;28;20254;-85
2022/01/08 04:34:34;;;;;;;42.15;38.33;;;;;;;;;;4958503;28;20224;-85
2022/01/08 04:37:01;;;;;;;40.78;36.55;;;;;;;;;;4975298;28;20211;-85
2022/01/08 04:39:28;;;;;;;38.55;35.15;;;;;;;;;;4975434;28;20609;-85
2022/01/08 04:41:56;;;;;;;40.53;36.30;;;;;;;;;;4975292;28;20285;-85
2022/01/08 04:44:23;;;;;;;42.85;38.55;;;;;;;;;;4975325;28;20608;-85
2022/01/08 04:46:50;;;;;;;39.47;35.70;;;;;;;;;;4975043;28;20191;-85
2022/01/08 04:49:18;;;;;;;38.92;34.90;;;;;;;;;;4974897;28;20206;-85
2022/01/08 04:51:46;;;;;;;40.50;36.15;;;;;;;;;;4975070;28;20591;-85
2022/01/08 04:54:14;;;;;;;39.83;35.92;;;;;;;;;;4974188;28;20216;-86
2022/01/08 04:56:41;;;;;;;42.22;37.78;;;;;;;;;;4974696;28;20278;-84
2022/01/08 04:59:08;;;;;;;40.25;36.15;;;;;;;;;;4974868;28;20246;-85
2022/01/08 05:01:36;;;;;;;43.22;39.03;;;;;;;;;;4974774;28;20195;-84
2022/01/08 05:04:03;;;;;;;40.15;36.08;;;;;;;;;;4974572;28;20203;-85
2022/01/08 05:06:31;;;;;;;41.88;37.88;;;;;;;;;;4974793;28;20196;-85
2022/01/08 05:08:59;;;;;;;41.30;37.25;;;;;;;;;;4974821;28;20649;-85
2022/01/08 05:11:27;;;;;;;42.53;37.50;;;;;;;;;;4974695;28;20206;-85
2022/01/08 05:13:55;;;;;;;42.15;37.83;;;;;;;;;;4974412;28;20228;-85
2022/01/08 05:16:22;;;;;;;40.75;36.88;;;;;;;;;;4975004;28;20272;-85
2022/01/08 05:18:52;;;;;;;41.92;37.78;;;;;;;;;;4974487;28;20217;-85
2022/01/08 05:21:24;;;;;;;43.65;39.40;;;;;;;;;;4974599;28;20187;-86
2022/01/08 05:23:52;;;;;;;41.22;37.28;;;;;;;;;;4974241;28;20645;-85
2022/01/08 05:26:21;;;;;;;42.92;38.83;;;;;;;;;;4974697;28;20195;-85
2022/01/08 05:28:48;;;;;;;43.90;39.40;;;;;;;;;;4974863;28;20196;-85
2022/01/08 05:31:18;;;;;;;41.38;37.60;;;;;;;;;;4974866;28;20599;-85
2022/01/08 05:33:45;;;;;;;43.25;38.95;;;;;;;;;;4974463;28;20622;-85
2022/01/08 05:36:12;;;;;;;41.67;37.55;;;;;;;;;;4974672;28;20199;-85
2022/01/08 05:38:40;;;;;;;41.25;37.65;;;;;;;;;;4974613;28;20192;-86
2022/01/08 05:41:07;;;;;;;40.42;36.72;;;;;;;;;;4974213;28;20211;-85
2022/01/08 05:43:36;;;;;;;43.03;38.70;;;;;;;;;;4974677;28;20204;-84
2022/01/08 05:46:04;;;;;;;43.35;39.20;;;;;;;;;;4974375;28;20201;-86
2022/01/08 05:48:31;;;;;;;42.80;38.78;;;;;;;;;;4974550;28;20246;-85
2022/01/08 05:50:59;;;;;;;41.50;37.45;;;;;;;;;;4974353;28;20212;-85
2022/01/08 05:53:26;;;;;;;41.90;37.85;;;;;;;;;;4974104;28;20259;-84
2022/01/08 05:55:55;;;;;;;43.78;39.28;;;;;;;;;;4957058;28;20215;-84
2022/01/08 05:58:22;;;;;;;44.08;39.60;;;;;;;;;;4974276;28;20209;-85
2022/01/08 06:00:51;;;;;;;46.45;41.85;;;;;;;;;;4974291;28;20192;-86
2022/01/08 06:03:19;;;;;;;44.08;39.80;;;;;;;;;;4974094;28;20280;-85
2022/01/08 06:05:46;;;;;;;48.40;40.90;;;;;;;;;;4977791;28;20252;-85
2022/01/08 06:08:14;;;;;;;42.30;38.05;;;;;;;;;;4978007;28;20195;-86
2022/01/08 06:10:41;;;;;;;45.45;40.72;;;;;;;;;;4977775;28;20214;-85
2022/01/08 06:13:09;;;;;;;45.50;40.70;;;;;;;;;;4977870;28;20646;-85
2022/01/08 06:15:36;;;;;;;50.58;44.55;;;;;;;;;;4977823;28;20223;-85
2022/01/08 06:18:05;;;;;;;52.47;43.80;;;;;;;;;;4960857;28;20266;-85
2022/01/08 06:20:32;;;;;;;50.03;44.67;;;;;;;;;;4977845;28;20210;-85
2022/01/08 06:22:59;;;;;;;46.72;41.50;;;;;;;;;;4977685;28;20701;-86
2022/01/08 06:25:27;;;;;;;46.38;41.47;;;;;;;;;;4977684;28;20619;-86
2022/01/08 06:27:55;;;;;;;49.63;44.33;;;;;;;;;;4977868;28;20199;-86
2022/01/08 06:30:22;;;;;;;47.28;42.25;;;;;;;;;;4977506;28;20207;-85
2022/01/08 06:32:49;;;;;;;50.90;41.97;;;;;;;;;;4977906;28;20262;-86
2022/01/08 06:35:18;;;;;;;49.35;42.15;;;;;;;;;;4977244;28;20234;-85
2022/01/08 06:37:45;;;;;;;35.60;32.08;;;;;;;;;;4977470;28;20197;-86
2022/01/08 06:40:13;;;;;;;50.60;43.38;;;;;;;;;;4977729;28;20193;-86
2022/01/08 06:42:40;;;;;;;47.92;42.78;;;;;;;;;;4977796;28;20606;-86
2022/01/08 06:45:08;;;;;;;52.78;43.47;;;;;;;;;;4960214;28;20208;-86
2022/01/08 06:47:35;;;;;;;49.80;41.55;;;;;;;;;;4977181;28;20204;-86
2022/01/08 06:50:03;;;;;;;46.97;42.13;;;;;;;;;;4977542;28;20255;-86
2022/01/08 06:52:33;;;;;;;49.38;42.55;;;;;;;;;;4977315;28;20193;-85
2022/01/08 06:55:01;;;;;;;41.90;37.70;;;;;;;;;;4976854;28;20220;-86
2022/01/08 06:57:28;;;;;;;45.80;40.80;;;;;;;;;;4977469;28;20215;-85
2022/01/08 06:59:55;;;;;;;46.17;41.22;;;;;;;;;;4977289;28;20197;-86
2022/01/08 07:02:23;;;;;;;50.88;43.28;;;;;;;;;;4977227;28;20270;-85
2022/01/08 07:04:50;;;;;;;38.15;34.25;;;;;;;;;;4977332;28;20603;-85
2022/01/08 07:07:17;;;;;;;46.17;41.65;;;;;;;;;;4977164;28;20204;-84
2022/01/08 07:09:46;;;;;;;49.35;42.63;;;;;;;;;;4977208;28;20200;-85
2022/01/08 07:12:13;;;;;;;55.88;45.65;;;;;;;;;;4976815;28;20285;-85
2022/01/08 07:14:41;;;;;;;47.70;42.50;;;;;;;;;;4977017;28;20946;-86
2022/01/08 07:17:08;;;;;;;50.80;42.20;;;;;;;;;;4976412;28;20320;-86
2022/01/08 07:19:35;;;;;;;47.20;40.92;;;;;;;;;;4976971;28;20264;-86
2022/01/08 07:22:03;;;;;;;49.88;41.90;;;;;;;;;;4976418;28;20638;-86
2022/01/08 07:24:30;;;;;;;48.20;42.03;;;;;;;;;;4976599;28;20188;-86
2022/01/08 07:26:59;;;;;;;46.90;40.88;;;;;;;;;;4976658;28;20191;-86
2022/01/08 07:29:26;;;;;;;45.10;40.30;;;;;;;;;;4976820;28;20263;-86
2022/01/08 07:31:54;;;;;;;44.67;39.97;;;;;;;;;;4959127;28;20254;-85
2022/01/08 07:34:21;;;;;;;46.53;41.88;;;;;;;;;;4975819;28;20227;-85
2022/01/08 07:36:49;;;;;;;48.42;43.28;;;;;;;;;;4976234;28;20196;-84
2022/01/08 07:39:16;;;;;;;51.58;44.28;;;;;;;;;;4976445;28;20253;-84
2022/01/08 07:41:43;;;;;;;48.40;43.47;;;;;;;;;;4975747;28;20210;-83
2022/01/08 07:44:12;;;;;;;49.95;44.75;;;;;;;;;;4975912;28;20290;-84
2022/01/08 07:46:39;;;;;;;48.30;43.47;;;;;;;;;;4975854;28;20599;-84
2022/01/08 07:49:09;;;;;;;55.78;46.65;;;;;;;;;;4975557;28;20192;-84
2022/01/08 07:51:36;;;;;;;49.85;44.55;;;;;;;;;;4975839;28;20208;-83
2022/01/08 07:54:03;;;;;;;50.58;45.20;;;;;;;;;;4975561;28;20253;-83
2022/01/08 07:56:32;;;;;;;46.85;42.20;;;;;;;;;;4975521;28;20265;-84
2022/01/08 07:58:59;;;;;;;43.75;39.40;;;;;;;;;;4975461;28;20651;-84
2022/01/08 08:01:28;;;;;;;48.65;44.03;;;;;;;;;;4975528;28;20200;-83
2022/01/08 08:03:56;;;;;;;44.08;39.53;;;;;;;;;;4975502;28;20205;-82
2022/01/08 08:06:23;;;;;;;46.83;41.88;;;;;;;;;;4975863;28;20202;-84
2022/01/08 08:08:50;;;;;;;42.03;37.78;;;;;;;;;;4975405;28;20220;-84
2022/01/08 08:11:18;;;;;;;46.97;42.17;;;;;;;;;;4975579;28;20190;-84
2022/01/08 08:13:45;;;;;;;49.60;41.78;;;;;;;;;;4975111;28;20250;-84
2022/01/08 08:16:13;;;;;;;45.58;40.72;;;;;;;;;;4975150;28;20220;-83
2022/01/08 08:18:41;;;;;;;46.00;41.22;;;;;;;;;;4975595;28;20195;-83
2022/01/08 08:21:09;;;;;;;54.80;48.92;;;;;;;;;;4975041;28;20211;-84
2022/01/08 08:23:36;;;;;;;50.53;45.40;;;;;;;;;;4974578;28;20245;-82
2022/01/08 08:26:03;;;;;;;50.53;42.40;;;;;;;;;;4975148;28;20583;-83
2022/01/08 08:28:30;;;;;;;59.22;44.45;;;;;;;;;;4974212;28;20196;-84
2022/01/08 08:30:58;;;;;;;52.38;44.92;;;;;;;;;;4974942;28;20642;-83
2022/01/08 08:33:25;;;;;;;52.70;45.50;;;;;;;;;;4975063;28;20196;-83
2022/01/08 08:35:54;;;;;;;50.58;44.05;;;;;;;;;;4974794;28;20685;-84
2022/01/08 08:38:21;;;;;;;49.78;43.08;;;;;;;;;;4975102;28;20228;-84
2022/01/08 08:40:51;;;;;;;55.95;44.30;;;;;;;;;;4974936;28;20196;-83
2022/01/08 08:43:19;;;;;;;59.60;45.50;;;;;;;;;;4975003;28;20203;-83
2022/01/08 08:45:47;;;;;;;57.15;45.95;;;;;;;;;;4974682;28;20206;-83
2022/01/08 08:48:15;;;;;;;60.95;47.55;;;;;;;;;;4974995;28;20198;-83
2022/01/08 08:50:43;;;;;;;56.00;43.83;;;;;;;;;;4974631;28;20298;-83
2022/01/08 08:53:11;;;;;;;51.22;44.72;;;;;;;;;;4974842;28;20270;-84
2022/01/08 08:55:39;;;;;;;52.40;44.92;;;;;;;;;;4974351;28;20230;-84
2022/01/08 08:58:06;;;;;;;56.08;45.60;;;;;;;;;;4974457;28;20200;-83
2022/01/08 09:00:33;;;;;;;58.75;45.63;;;;;;;;;;4974635;28;20195;-84
2022/01/08 09:03:01;;;;;;;49.88;44.05;;;;;;;;;;4974535;28;20213;-84
2022/01/08 09:05:28;;;;;;;50.97;45.47;;;;;;;;;;4974606;28;20207;-84
2022/01/08 09:07:56;;;;;;;57.95;46.25;;;;;;;;;;4974846;28;20602;-84
2022/01/08 09:10:25;;;;;;;50.80;44.05;;;;;;;;;;4957101;28;20205;-84
2022/01/08 09:12:53;;;;;;;55.13;45.97;;;;;;;;;;4957619;28;20230;-83
2022/01/08 09:15:24;;;;;;;51.90;46.55;;;;;;;;;;4974158;28;20681;-84
2022/01/08 09:17:52;;;;;;;58.53;46.05;;;;;;;;;;4974124;28;20204;-85
2022/01/08 09:20:20;;;;;;;51.45;44.00;;;;;;;;;;4974473;28;20196;-84
2022/01/08 09:22:47;;;;;;;46.42;41.40;;;;;;;;;;4974278;28;20701;-84
2022/01/08 09:25:15;;;;;;;48.40;43.35;;;;;;;;;;4974552;28;20591;-84
2022/01/08 09:27:43;;;;;;;46.47;41.65;;;;;;;;;;4974510;28;20196;-83
2022/01/08 09:30:11;;;;;;;48.78;43.53;;;;;;;;;;4974427;28;20990;-86
2022/01/08 09:32:38;;;;;;;50.38;44.97;;;;;;;;;;4974080;28;20197;-83
2022/01/08 09:35:06;;;;;;;45.70;40.97;;;;;;;;;;4973841;28;20287;-84
2022/01/08 09:37:37;;;;;;;43.83;39.53;;;;;;;;;;4974066;28;20577;-84
2022/01/08 09:40:05;;;;;;;47.55;39.80;;;;;;;;;;4979168;28;20221;-83
2022/01/08 09:42:32;;;;;;;43.70;39.30;;;;;;;;;;4980628;28;20241;-84
2022/01/08 09:45:02;;;;;;;42.55;38.20;;;;;;;;;;4980577;28;20613;-84
2022/01/08 09:47:29;;;;;;;44.28;39.88;;;;;;;;;;4980431;28;20199;-84
2022/01/08 09:49:56;;;;;;;43.45;39.55;;;;;;;;;;4980857;28;20196;-84
2022/01/08 09:52:24;;;;;;;42.05;37.70;;;;;;;;;;4980301;28;20211;-85
2022/01/08 09:54:51;;;;;;;41.22;37.53;;;;;;;;;;4963069;28;20265;-85
2022/01/08 09:57:18;;;;;;;42.17;38.47;;;;;;;;;;4980791;28;20221;-85
2022/01/08 09:59:46;;;;;;;43.40;37.90;;;;;;;;;;4980552;28;20199;-84
2022/01/08 10:02:14;;;;;;;41.42;37.75;;;;;;;;;;4980519;28;20198;-84
2022/01/08 10:04:42;;;;;;;43.13;38.90;;;;;;;;;;4980364;28;20215;-83
2022/01/08 10:07:20;;;;;;;42.42;38.75;;;;;;;;;;4980350;28;20207;-86
2022/01/08 10:10:02;;;;;;;41.80;37.90;;;;;;;;;;4980282;28;20191;-84
2022/01/08 10:12:41;;;;;;;41.80;37.55;;;;;;;;;;4977518;28;20257;-84
2022/01/08 10:17:57;;;;;;;44.80;40.42;;;;;;;;;;4980784;28;20198;-85
2022/01/08 10:20:31;;;;;;;41.45;37.35;;;;;;;;;;4980616;28;20196;-85
2022/01/08 10:23:00;;;;;;;42.58;38.67;;;;;;;;;;4980418;28;20330;-92
2022/01/08 10:25:27;;;;;;;41.88;37.30;;;;;;;;;;4980647;28;20208;-82
2022/01/08 10:27:55;;;;;;;40.78;37.08;;;;;;;;;;4980021;28;20207;-82
2022/01/08 10:30:26;;;;;;;43.38;38.95;;;;;;;;;;4980541;28;20638;-86
2022/01/08 10:33:02;;;;;;;41.55;37.65;;;;;;;;;;4980832;28;20201;-87
2022/01/08 10:35:51;;;;;;;44.85;40.00;;;;;;;;;;4980255;28;20192;-85
2022/01/08 10:38:18;;;;;;;45.33;40.85;;;;;;;;;;4980248;28;20196;-84
2022/01/08 10:40:46;;;;;;;44.47;40.17;;;;;;;;;;4962771;28;20737;-83
2022/01/08 10:43:23;;;;;;;39.10;35.05;;;;;;;;;;4980376;28;20609;-87
2022/01/08 10:45:51;;;;;;;42.80;38.60;;;;;;;;;;4998574;28;20200;-85
2022/01/08 10:48:30;;;;;;;43.47;39.15;;;;;;;;;;4982926;28;20208;-87
2022/01/08 10:51:09;;;;;;;43.35;39.15;;;;;;;;;;4980650;28;20258;-87
2022/01/08 10:53:51;;;;;;;44.67;40.00;;;;;;;;;;4998013;28;20190;-88
2022/01/08 10:56:22;;;;;;;42.75;38.53;;;;;;;;;;4995498;28;20288;-89
2022/01/08 10:58:52;;;;;;;42.75;38.10;;;;;;;;;;4997768;28;20219;-88
2022/01/08 11:01:35;;;;;;;43.05;38.45;;;;;;;;;;4997804;28;20203;-86
2022/01/08 11:04:03;;;;;;;36.88;33.35;;;;;;;;;;4996513;28;20630;-85
2022/01/08 11:06:31;;;;;;;42.53;37.10;;;;;;;;;;4996461;28;20519;-85
2022/01/08 11:09:01;;;;;;;41.75;37.60;;;;;;;;;;4996353;28;20194;-85
2022/01/08 11:11:30;;;;;;;42.30;37.13;;;;;;;;;;4996992;28;20226;-87
2022/01/08 11:14:04;;;;;;;40.22;36.67;;;;;;;;;;4996682;28;20231;-87
2022/01/08 11:16:32;;;;;;;36.50;32.83;;;;;;;;;;4996576;28;20311;-88
2022/01/08 11:19:00;;;;;;;40.47;36.15;;;;;;;;;;4996536;28;20283;-86
2022/01/08 11:21:31;;;;;;;43.05;37.40;;;;;;;;;;4996450;28;20253;-85
2022/01/08 11:23:59;;;;;;;41.03;36.60;;;;;;;;;;4995639;28;20231;-86
2022/01/08 11:26:27;;;;;;;30.88;27.75;;;;;;;;;;4996570;28;20219;-92
2022/01/08 11:28:56;;;;;;;39.20;35.55;;;;;;;;;;4996465;28;20200;-87
2022/01/08 11:31:24;;;;;;;36.22;32.63;;;;;;;;;;4996536;28;20197;-90
2022/01/08 11:33:56;;;;;;;29.10;26.70;;;;;;;;;;4996636;28;20561;-89
2022/01/08 11:36:24;;;;;;;37.95;34.33;;;;;;;;;;4996480;28;20223;-89
2022/01/08 11:38:56;;;;;;;37.72;33.63;;;;;;;;;;4997160;28;20195;-85
2022/01/08 11:41:23;;;;;;;35.95;32.28;;;;;;;;;;4996952;28;20246;-89
2022/01/08 11:43:51;;;;;;;34.53;30.98;;;;;;;;;;4996717;28;20630;-90
2022/01/08 11:46:19;;;;;;;35.42;31.88;;;;;;;;;;4996426;28;20539;-84
2022/01/08 11:48:47;;;;;;;37.38;33.63;;;;;;;;;;4996400;28;20760;-91
2022/01/08 11:51:16;;;;;;;36.80;32.55;;;;;;;;;;4995917;28;20226;-86
2022/01/08 11:53:47;;;;;;;36.05;32.47;;;;;;;;;;4995866;28;20601;-85
2022/01/08 11:56:24;;;;;;;34.00;30.92;;;;;;;;;;4995718;28;20229;-85
2022/01/08 11:59:04;;;;;;;32.47;29.35;;;;;;;;;;4995881;28;20265;-85
2022/01/08 12:01:31;;;;;;;35.83;31.92;;;;;;;;;;4995654;28;20199;-86
2022/01/08 12:03:59;;;;;;;34.63;31.23;;;;;;;;;;4995536;28;20196;-86
2022/01/08 12:06:37;;;;;;;36.88;33.22;;;;;;;;;;4995214;28;20298;-85
2022/01/08 12:09:19;;;;;;;35.40;31.55;;;;;;;;;;4995221;28;20195;-85
2022/01/08 12:11:55;;;;;;;33.80;30.30;;;;;;;;;;4994936;28;20314;-84
2022/01/08 12:14:23;;;;;;;33.63;30.52;;;;;;;;;;4995396;28;20256;-84
2022/01/08 12:16:51;;;;;;;36.75;33.33;;;;;;;;;;4995256;28;20235;-84
2022/01/08 12:19:33;;;;;;;34.60;31.58;;;;;;;;;;4995357;28;20195;-85
2022/01/08 12:22:01;;;;;;;34.30;30.98;;;;;;;;;;4992135;28;20207;-85
2022/01/08 12:24:38;;;;;;;33.78;30.58;;;;;;;;;;4994743;28;20191;-84
2022/01/08 12:27:22;;;;;;;35.38;32.08;;;;;;;;;;4995049;28;20243;-85
2022/01/08 12:29:50;;;;;;;34.03;30.90;;;;;;;;;;4994582;28;20197;-85
2022/01/08 12:32:29;;;;;;;34.20;30.80;;;;;;;;;;4994688;28;20663;-85
2022/01/08 12:35:02;;;;;;;33.50;30.20;;;;;;;;;;4994532;28;20286;-84
2022/01/08 12:37:37;;;;;;;33.47;29.80;;;;;;;;;;4994692;28;20255;-85
2022/01/08 12:40:05;;;;;;;31.17;28.42;;;;;;;;;;4994652;28;20642;-84
2022/01/08 12:42:38;;;;;;;32.90;29.65;;;;;;;;;;4994580;28;20207;-84
2022/01/08 12:45:07;;;;;;;34.42;31.20;;;;;;;;;;4994250;28;20243;-84
2022/01/08 12:47:52;;;;;;;33.88;30.67;;;;;;;;;;4994733;28;20221;-85
2022/01/08 12:50:34;;;;;;;34.55;31.17;;;;;;;;;;4994425;28;20226;-84
2022/01/08 12:53:14;;;;;;;32.53;29.73;;;;;;;;;;4994432;28;20194;-84
2022/01/08 12:55:43;;;;;;;34.83;31.42;;;;;;;;;;4994454;28;20657;-84
2022/01/08 12:58:16;;;;;;;32.80;29.77;;;;;;;;;;4994324;28;20230;-84
2022/01/08 13:00:56;;;;;;;32.47;29.45;;;;;;;;;;4994508;28;20284;-84
2022/01/08 13:03:24;;;;;;;30.83;28.20;;;;;;;;;;4994434;28;20254;-83
2022/01/08 13:05:52;;;;;;;29.90;27.40;;;;;;;;;;5004308;28;20255;-84
2022/01/08 13:08:23;;;;;;;33.20;30.23;;;;;;;;;;4995987;28;20708;-84
2022/01/08 13:10:56;;;;;;;30.00;27.38;;;;;;;;;;4997021;28;20287;-84
2022/01/08 13:13:25;;;;;;;30.70;28.00;;;;;;;;;;4994259;28;20231;-84
2022/01/08 13:15:53;;;;;;;32.67;27.17;;;;;;;;;;4994659;28;20227;-84
2022/01/08 13:18:20;;;;;;;28.75;26.50;;;;;;;;;;4994310;28;20228;-84
2022/01/08 13:20:48;;;;;;;33.55;30.25;;;;;;;;;;4993657;28;20599;-84
2022/01/08 13:23:16;;;;;;;30.73;28.10;;;;;;;;;;4993567;28;20231;-84
2022/01/08 13:25:52;;;;;;;28.08;25.60;;;;;;;;;;4992617;28;20196;-83
2022/01/08 13:28:21;;;;;;;30.77;28.23;;;;;;;;;;4992078;28;20293;-88
2022/01/08 13:30:51;;;;;;;32.45;29.55;;;;;;;;;;4994724;28;20196;-90
2022/01/08 13:33:23;;;;;;;31.63;28.83;;;;;;;;;;4994282;28;20196;-83
2022/01/08 13:35:58;;;;;;;30.55;28.00;;;;;;;;;;4977010;28;20227;-88
2022/01/08 13:38:29;;;;;;;29.10;26.88;;;;;;;;;;4994433;28;20215;-84
2022/01/08 13:40:57;;;;;;;31.40;28.33;;;;;;;;;;4993616;28;20196;-83
2022/01/08 13:43:25;;;;;;;30.40;28.10;;;;;;;;;;4993647;28;20282;-84
2022/01/08 13:45:54;;;;;;;28.13;25.90;;;;;;;;;;4993846;28;20300;-83
2022/01/08 13:48:22;;;;;;;29.42;27.10;;;;;;;;;;4993587;28;20196;-82
2022/01/08 13:50:56;;;;;;;28.40;26.27;;;;;;;;;;4993810;28;20255;-84
2022/01/08 13:53:24;;;;;;;29.15;26.95;;;;;;;;;;4993331;28;20192;-84
2022/01/08 13:55:51;;;;;;;30.10;27.58;;;;;;;;;;4993490;28;20215;-84
2022/01/08 13:58:19;;;;;;;29.42;27.20;;;;;;;;;;4993368;28;20214;-83
2022/01/08 14:00:47;;;;;;;28.00;25.58;;;;;;;;;;4993303;28;20202;-83
2022/01/08 14:03:22;;;;;;;27.67;25.60;;;;;;;;;;4993563;28;20204;-83
2022/01/08 14:05:49;;;;;;;27.67;25.48;;;;;;;;;;4993306;28;20548;-84
2022/01/08 14:08:17;;;;;;;25.90;23.90;;;;;;;;;;4993463;28;20201;-84
2022/01/08 14:10:45;;;;;;;26.08;24.17;;;;;;;;;;4993260;28;20206;-84
2022/01/08 14:13:13;;;;;;;27.55;25.02;;;;;;;;;;4993811;28;20192;-83
2022/01/08 14:15:42;;;;;;;24.52;22.92;;;;;;;;;;4993167;28;20688;-85
2022/01/08 14:18:11;;;;;;;24.20;22.67;;;;;;;;;;4993007;28;20230;-83
2022/01/08 14:20:40;;;;;;;24.08;22.58;;;;;;;;;;4993226;28;20196;-83
2022/01/08 14:23:11;;;;;;;26.05;24.20;;;;;;;;;;4972476;28;20288;-84
2022/01/08 14:25:38;;;;;;;25.10;23.50;;;;;;;;;;4973802;28;20203;-83
2022/01/08 14:28:15;;;;;;;24.65;22.95;;;;;;;;;;4977695;28;20216;-83
2022/01/08 14:30:43;;;;;;;23.63;22.13;;;;;;;;;;4977188;28;20196;-84
2022/01/08 14:33:10;;;;;;;23.77;22.08;;;;;;;;;;4977748;28;20613;-84
2022/01/08 14:35:38;;;;;;;24.38;22.48;;;;;;;;;;4977371;28;20725;-83
2022/01/08 14:38:06;;;;;;;24.40;22.90;;;;;;;;;;4977322;28;20216;-84
2022/01/08 14:40:35;;;;;;;23.35;22.05;;;;;;;;;;4985536;28;20191;-84
2022/01/08 14:43:03;;;;;;;24.48;23.05;;;;;;;;;;4994008;28;20188;-84